Terminal Aerodrome Forecast
Issued by NWS

Home | Current Version | Previous Version | Text Only | Print | Product List | Glossary On
Versions: 1 2 3 4 5 6 7 8 9 10 11 12
000
FTUS44 KLZK 061700
TAFLLQ
TAF
KLLQ 061725Z 0618/0718 16010G18KT P6SM SCT050 BKN150
     FM070100 15006KT P6SM BKN050
     FM071400 18010G18KT P6SM SCT030 SCT060=

USA.gov is the U.S. government's official web portal to all federal, state and local government web resources and services.